Time;durP1;ratioP1;P1;durP2;ratioP2;P2;SDS_P1;SDS_P2;PMS_P1;PMS_P2;Temp;Humidity;BMP_temperature;BMP_pressure;BME280_temperature;BME280_humidity;BME280_pressure;Samples;Min_cycle;Max_cycle;Signal;HPM_P1;HPM_P2
2023/07/27 00:01:06;;;;;;;4.10;3.53;;;13.50;99.90;;;;;;5117425;28;20199;-45
2023/07/27 00:03:31;;;;;;;4.67;4.10;;;13.50;99.90;;;;;;5116727;28;20460;-45
2023/07/27 00:05:57;;;;;;;7.00;4.67;;;13.40;99.90;;;;;;5117293;28;20506;-47
2023/07/27 00:08:22;;;;;;;4.67;4.17;;;13.40;99.90;;;;;;5117604;28;20282;-45
2023/07/27 00:10:48;;;;;;;4.27;3.53;;;13.40;99.90;;;;;;5116059;28;20184;-44
2023/07/27 00:13:14;;;;;;;4.40;3.90;;;13.40;99.90;;;;;;5115931;28;20598;-49
2023/07/27 00:15:39;;;;;;;5.60;4.27;;;13.40;99.90;;;;;;5115959;28;20202;-47
2023/07/27 00:18:05;;;;;;;4.33;3.93;;;13.40;99.90;;;;;;5098187;28;20438;-44
2023/07/27 00:20:30;;;;;;;5.20;4.70;;;13.40;1.00;;;;;;5116080;28;20457;-47
2023/07/27 00:22:56;;;;;;;4.33;3.93;;;13.40;99.90;;;;;;5116395;28;20248;-45
2023/07/27 00:25:22;;;;;;;4.63;4.23;;;13.50;99.90;;;;;;5116345;28;20183;-47
2023/07/27 00:27:47;;;;;;;5.00;4.30;;;13.50;99.90;;;;;;5117153;28;20260;-48
2023/07/27 00:30:13;;;;;;;4.60;4.20;;;13.50;99.90;;;;;;5081605;28;20279;-44
2023/07/27 00:32:39;;;;;;;4.20;3.80;;;13.50;99.90;;;;;;5117552;28;20196;-46
2023/07/27 00:35:05;;;;;;;5.23;4.40;;;13.50;99.90;;;;;;5099428;28;20195;-45
2023/07/27 00:37:31;;;;;;;5.80;4.37;;;13.50;1.00;;;;;;5116922;28;20326;-48
2023/07/27 00:39:56;;;;;;;5.10;3.73;;;13.60;1.00;;;;;;5116800;28;20529;-47
2023/07/27 00:42:22;;;;;;;4.10;3.70;;;13.60;99.90;;;;;;5116140;28;20723;-44
2023/07/27 00:44:50;;;;;;;4.40;4.00;;;13.60;99.90;;;;;;5116575;28;20164;-49
2023/07/27 00:47:16;;;;;;;4.57;3.97;;;13.60;99.90;;;;;;5117033;28;20180;-50
2023/07/27 00:49:42;;;;;;;4.60;4.20;;;13.60;99.90;;;;;;5116242;28;20458;-47
2023/07/27 00:52:08;;;;;;;5.50;4.03;;;13.60;99.90;;;;;;5116277;28;20190;-46
2023/07/27 00:54:34;;;;;;;5.83;4.03;;;13.60;99.90;;;;;;5098394;28;20241;-46
2023/07/27 00:57:01;;;;;;;5.53;4.20;;;13.70;99.90;;;;;;5116153;28;20460;-44
2023/07/27 00:59:27;;;;;;;3.90;3.50;;;13.70;99.90;;;;;;5081292;28;20432;-45
2023/07/27 01:01:53;;;;;;;5.10;4.00;;;13.60;99.90;;;;;;5097870;28;20433;-45
2023/07/27 01:04:21;;;;;;;4.90;4.40;;;13.60;99.90;;;;;;5115468;28;20425;-45
2023/07/27 01:06:47;;;;;;;4.50;4.07;;;13.60;99.90;;;;;;5115641;28;20421;-47
2023/07/27 01:09:13;;;;;;;4.47;4.03;;;13.60;99.90;;;;;;5098107;28;20519;-45
2023/07/27 01:11:48;;;;;;;5.40;4.50;;;13.50;99.90;;;;;;5116399;28;20190;-45
2023/07/27 01:14:25;;;;;;;3.70;3.40;;;13.50;99.90;;;;;;5098370;28;20511;-47
2023/07/27 01:17:09;;;;;;;4.60;4.20;;;13.50;99.90;;;;;;5115605;28;20461;-45
2023/07/27 01:19:49;;;;;;;4.23;3.83;;;13.50;99.90;;;;;;5115899;28;20427;-46
2023/07/27 01:22:30;;;;;;;5.37;4.07;;;13.50;99.90;;;;;;5115859;28;20409;-48
2023/07/27 01:25:20;;;;;;;4.40;4.00;;;13.40;99.90;;;;;;5115825;28;20442;-47
2023/07/27 01:28:20;;;;;;;4.77;4.30;;;13.30;99.90;;;;;;5115442;28;20440;-46
2023/07/27 01:30:50;;;;;;;3.93;3.53;;;13.40;99.90;;;;;;5097102;28;20429;-44
2023/07/27 01:33:30;;;;;;;3.90;3.50;;;13.40;99.90;;;;;;5095745;28;20892;-47
2023/07/27 01:36:10;;;;;;;4.60;4.10;;;13.30;99.90;;;;;;5114209;28;20417;-46
2023/07/27 01:38:38;;;;;;;3.83;3.50;;;13.30;99.90;;;;;;5095610;28;20809;-47
2023/07/27 01:41:06;;;;;;;4.10;3.80;;;13.20;99.90;;;;;;5113333;28;20878;-48
2023/07/27 01:43:32;;;;;;;4.60;4.20;;;13.20;99.90;;;;;;5095641;28;20432;-46
2023/07/27 01:45:58;;;;;;;4.93;3.40;;;13.20;1.00;;;;;;5113625;28;20421;-46
2023/07/27 01:48:26;;;;;;;4.50;4.03;;;13.20;1.00;;;;;;5096035;28;20432;-46
2023/07/27 01:50:52;;;;;;;5.10;4.60;;;13.10;1.00;;;;;;5097129;28;20439;-44
2023/07/27 01:53:21;;;;;;;4.67;3.80;;;13.10;1.00;;;;;;5101318;28;20757;-45
2023/07/27 01:55:48;;;;;;;5.80;4.00;;;13.10;1.00;;;;;;5122816;28;20762;-46
2023/07/27 01:58:15;;;;;;;4.63;4.13;;;13.10;1.00;;;;;;5104447;28;20741;-45
2023/07/27 02:00:42;;;;;;;6.03;3.57;;;13.20;1.00;;;;;;5103709;28;20788;-48
2023/07/27 02:03:08;;;;;;;4.40;3.60;;;13.20;1.00;;;;;;5104554;28;20417;-43
2023/07/27 02:05:34;;;;;;;4.30;3.90;;;13.20;1.00;;;;;;5122237;28;20401;-47
2023/07/27 02:08:00;;;;;;;3.93;3.40;;;13.20;1.00;;;;;;5121828;28;20516;-46
2023/07/27 02:10:27;;;;;;;4.07;3.67;;;13.20;99.90;;;;;;5122420;28;20458;-46
2023/07/27 02:12:58;;;;;;;4.40;3.50;;;13.20;1.00;;;;;;5121868;28;20198;-45
2023/07/27 02:15:29;;;;;;;4.13;3.73;;;13.20;1.00;;;;;;5104135;28;20437;-45
2023/07/27 02:18:01;;;;;;;3.97;3.60;;;13.20;1.00;;;;;;5103960;28;20451;-46
2023/07/27 02:20:31;;;;;;;4.40;4.00;;;13.20;1.00;;;;;;5104374;28;20501;-46
2023/07/27 02:22:57;;;;;;;5.20;3.73;;;13.20;1.00;;;;;;5104281;28;20661;-46
2023/07/27 02:25:23;;;;;;;4.40;4.00;;;13.20;1.00;;;;;;5103891;28;20915;-47
2023/07/27 02:27:48;;;;;;;4.43;4.03;;;13.20;1.00;;;;;;5122257;28;20441;-46
2023/07/27 02:30:15;;;;;;;4.60;4.20;;;13.20;1.00;;;;;;5122050;28;20164;-44
2023/07/27 02:32:40;;;;;;;4.67;3.63;;;13.10;1.00;;;;;;5122312;28;20192;-46
2023/07/27 02:35:06;;;;;;;5.10;4.60;;;13.20;1.00;;;;;;5122014;28;20434;-46
2023/07/27 02:38:19;;;;;;;3.97;3.57;;;13.20;1.00;;;;;;5122899;28;20211;-46
2023/07/27 02:40:44;;;;;;;4.60;3.90;;;13.30;1.00;;;;;;5120467;28;20940;-44
2023/07/27 02:43:10;;;;;;;7.63;3.57;;;13.20;1.00;;;;;;5120931;28;20409;-46
2023/07/27 02:45:35;;;;;;;4.53;4.13;;;13.30;1.00;;;;;;5120676;28;20499;-47
2023/07/27 02:48:01;;;;;;;4.37;3.90;;;13.30;1.00;;;;;;5120517;28;20203;-45
2023/07/27 02:50:26;;;;;;;4.90;4.40;;;13.30;1.00;;;;;;5120755;28;20468;-51
2023/07/27 02:52:52;;;;;;;3.87;3.43;;;13.40;1.00;;;;;;5120239;28;20184;-47
2023/07/27 02:55:17;;;;;;;3.60;3.30;;;13.40;1.00;;;;;;5121175;28;20186;-46
2023/07/27 02:57:43;;;;;;;5.20;3.73;;;13.40;1.00;;;;;;5120478;28;20466;-48
2023/07/27 03:00:09;;;;;;;4.33;3.93;;;13.40;1.00;;;;;;5121349;28;20193;-50
2023/07/27 03:02:35;;;;;;;5.10;4.60;;;13.50;1.00;;;;;;5121412;28;20262;-47
2023/07/27 03:05:02;;;;;;;3.93;3.40;;;13.40;1.00;;;;;;5116164;28;20516;-47
2023/07/27 03:07:28;;;;;;;4.27;3.87;;;13.50;1.00;;;;;;5117737;28;20176;-46
2023/07/27 03:09:54;;;;;;;4.00;3.70;;;13.40;1.00;;;;;;5116486;28;20675;-46
2023/07/27 03:12:19;;;;;;;6.53;4.00;;;13.40;1.00;;;;;;5117319;28;20487;-45
2023/07/27 03:14:45;;;;;;;5.83;3.73;;;13.50;1.00;;;;;;5117490;28;20180;-45
2023/07/27 03:17:10;;;;;;;3.63;3.33;;;13.50;1.00;;;;;;5117193;28;20254;-44
2023/07/27 03:19:36;;;;;;;3.50;3.20;;;13.50;1.00;;;;;;5118578;28;20268;-46
2023/07/27 03:22:01;;;;;;;4.47;3.83;;;13.40;1.00;;;;;;5117628;28;20187;-45
2023/07/27 03:24:27;;;;;;;7.07;3.90;;;13.50;1.00;;;;;;5117642;28;20464;-46
2023/07/27 03:26:53;;;;;;;4.27;3.87;;;13.50;1.00;;;;;;5117790;28;20496;-48
2023/07/27 03:29:18;;;;;;;4.40;3.80;;;13.50;9.60;;;;;;5117809;28;20183;-44
2023/07/27 03:31:44;;;;;;;4.40;4.00;;;13.50;1.00;;;;;;5117615;28;20258;-51
2023/07/27 03:34:10;;;;;;;4.87;3.60;;;13.50;1.00;;;;;;5118701;28;20275;-44
2023/07/27 03:36:35;;;;;;;4.20;3.80;;;13.50;1.00;;;;;;5117643;28;20212;-45
2023/07/27 03:39:01;;;;;;;4.57;3.90;;;13.50;15.80;;;;;;5117833;28;20608;-45
2023/07/27 03:41:26;;;;;;;5.43;4.23;;;13.60;1.00;;;;;;5117721;28;20299;-46
2023/07/27 03:43:52;;;;;;;6.40;4.13;;;13.60;1.00;;;;;;5098979;28;20176;-46
2023/07/27 03:46:18;;;;;;;4.90;3.90;;;13.60;1.00;;;;;;5117066;28;20295;-44
2023/07/27 03:48:46;;;;;;;4.57;3.63;;;13.60;1.00;;;;;;5097294;28;20180;-46
2023/07/27 03:51:12;;;;;;;3.23;2.90;;;13.60;1.00;;;;;;5116251;28;20489;-48
2023/07/27 03:53:38;;;;;;;4.90;3.90;;;13.50;22.00;;;;;;5116123;28;20410;-48
2023/07/27 03:56:04;;;;;;;5.23;4.30;;;13.60;28.70;;;;;;5117591;28;20262;-45
2023/07/27 03:58:30;;;;;;;4.40;4.00;;;13.60;9.30;;;;;;5116953;28;20747;-46
2023/07/27 04:00:55;;;;;;;4.67;4.23;;;13.60;1.00;;;;;;5115498;28;20409;-47
2023/07/27 04:03:22;;;;;;;4.77;3.83;;;13.60;1.00;;;;;;5115802;28;20179;-44
2023/07/27 04:05:47;;;;;;;3.63;3.33;;;13.70;1.00;;;;;;5114960;28;20171;-45
2023/07/27 04:08:13;;;;;;;4.50;3.73;;;13.60;1.00;;;;;;5096567;28;20440;-45
2023/07/27 04:10:42;;;;;;;4.30;3.77;;;13.70;1.00;;;;;;5113771;28;20172;-45
2023/07/27 04:13:07;;;;;;;4.73;3.80;;;13.70;1.00;;;;;;5113625;28;20180;-48
2023/07/27 04:15:33;;;;;;;3.90;3.50;;;13.70;1.00;;;;;;5114836;28;20421;-50
2023/07/27 04:17:59;;;;;;;3.97;3.30;;;13.70;1.00;;;;;;5114731;28;20632;-44
2023/07/27 04:20:25;;;;;;;7.23;3.70;;;13.70;1.00;;;;;;5097557;28;20451;-44
2023/07/27 04:22:50;;;;;;;4.13;3.53;;;13.80;1.00;;;;;;5115697;28;20187;-46
2023/07/27 04:25:16;;;;;;;3.97;3.27;;;13.80;1.00;;;;;;5115968;28;20180;-44
2023/07/27 04:27:41;;;;;;;3.80;3.47;;;13.90;1.00;;;;;;5116371;28;20562;-46
2023/07/27 04:30:07;;;;;;;3.57;2.90;;;13.90;1.00;;;;;;5116637;28;20262;-48
2023/07/27 04:32:33;;;;;;;3.90;3.50;;;13.90;1.00;;;;;;5116581;28;20167;-45
2023/07/27 04:34:58;;;;;;;3.53;3.10;;;14.00;99.90;;;;;;5115231;28;20472;-47
2023/07/27 04:37:24;;;;;;;3.87;3.40;;;14.00;1.00;;;;;;5114739;28;20383;-47
2023/07/27 04:39:50;;;;;;;3.60;3.30;;;14.00;99.90;;;;;;5114244;28;20740;-45
2023/07/27 04:42:15;;;;;;;4.13;3.23;;;14.00;99.90;;;;;;5114901;28;20231;-45
2023/07/27 04:44:41;;;;;;;3.23;2.87;;;14.00;99.90;;;;;;5114643;28;20259;-46
2023/07/27 04:47:06;;;;;;;3.47;3.17;;;14.10;99.90;;;;;;5114398;28;20284;-46
2023/07/27 04:49:32;;;;;;;3.63;3.30;;;14.20;99.90;;;;;;5114633;28;20572;-47
2023/07/27 04:51:58;;;;;;;4.43;3.10;;;14.20;91.70;;;;;;5113404;28;20228;-49
2023/07/27 04:54:23;;;;;;;4.10;3.30;;;14.30;82.60;;;;;;5112378;28;20438;-47
2023/07/27 04:56:49;;;;;;;4.17;3.00;;;14.30;99.90;;;;;;5113988;28;20336;-46
2023/07/27 04:59:14;;;;;;;3.70;3.40;;;14.30;33.00;;;;;;5115109;28;20172;-45
2023/07/27 05:01:40;;;;;;;4.43;4.03;;;14.40;1.00;;;;;;5114874;28;20621;-44
2023/07/27 05:04:06;;;;;;;5.70;3.10;;;14.40;1.00;;;;;;5114366;28;20164;-44
2023/07/27 05:06:31;;;;;;;3.33;2.40;;;14.40;1.00;;;;;;5114280;28;20275;-46
2023/07/27 05:08:57;;;;;;;5.33;2.87;;;14.40;1.00;;;;;;5114716;28;20416;-48
2023/07/27 05:11:23;;;;;;;3.40;3.10;;;14.50;1.00;;;;;;5113653;28;20171;-45
2023/07/27 05:13:50;;;;;;;3.80;3.13;;;14.50;1.00;;;;;;5113919;28;20432;-44
2023/07/27 05:16:16;;;;;;;3.80;3.50;;;14.60;99.90;;;;;;5112574;28;20206;-46
2023/07/27 05:18:45;;;;;;;3.30;3.00;;;14.60;1.00;;;;;;5112730;28;20810;-47
2023/07/27 05:21:10;;;;;;;6.60;3.83;;;14.60;1.00;;;;;;5112110;28;20168;-44
2023/07/27 05:23:36;;;;;;;4.87;2.97;;;14.70;99.90;;;;;;5114003;28;20510;-44
2023/07/27 05:26:01;;;;;;;4.87;3.30;;;14.70;99.90;;;;;;5112267;28;20547;-45
2023/07/27 05:28:27;;;;;;;3.60;3.10;;;14.70;99.90;;;;;;5077992;28;20492;-44
2023/07/27 05:30:53;;;;;;;5.77;4.47;;;14.70;99.90;;;;;;5112212;28;20239;-44
2023/07/27 05:33:18;;;;;;;4.20;3.80;;;14.80;99.90;;;;;;5112608;28;20183;-44
2023/07/27 05:35:48;;;;;;;4.07;3.00;;;14.80;99.90;;;;;;5112967;28;20506;-45
2023/07/27 05:38:17;;;;;;;3.40;3.10;;;14.70;99.90;;;;;;5115310;28;20585;-45
2023/07/27 05:40:43;;;;;;;6.87;3.37;;;14.80;99.90;;;;;;5114261;28;20477;-45
2023/07/27 05:43:09;;;;;;;3.27;2.97;;;14.70;99.90;;;;;;5114689;28;20509;-46
2023/07/27 05:45:36;;;;;;;4.00;3.60;;;14.80;99.90;;;;;;5113082;28;20203;-45
2023/07/27 05:48:03;;;;;;;3.80;3.47;;;14.70;99.90;;;;;;5112460;28;20443;-44
2023/07/27 05:50:29;;;;;;;2.83;2.63;;;14.70;1.00;;;;;;5113266;28;20542;-45
2023/07/27 05:52:54;;;;;;;4.00;2.97;;;14.70;1.00;;;;;;5113523;28;20460;-47
2023/07/27 05:55:20;;;;;;;5.83;3.63;;;14.80;1.00;;;;;;5113568;28;20184;-46
2023/07/27 05:57:45;;;;;;;3.63;3.10;;;14.80;99.90;;;;;;5113175;28;20229;-44
2023/07/27 06:00:11;;;;;;;3.30;3.00;;;14.90;99.90;;;;;;5112378;28;20164;-45
2023/07/27 06:02:37;;;;;;;3.83;3.10;;;14.90;99.90;;;;;;5112752;28;20526;-44
2023/07/27 06:05:11;;;;;;;5.80;3.23;;;14.90;99.90;;;;;;5112807;28;20422;-46
2023/07/27 06:07:36;;;;;;;3.63;3.30;;;15.00;99.90;;;;;;5095790;28;20195;-45
2023/07/27 06:10:02;;;;;;;3.83;3.43;;;15.00;99.90;;;;;;5114387;28;20429;-45
2023/07/27 06:12:28;;;;;;;4.80;3.00;;;15.00;99.90;;;;;;5115161;28;20321;-46
2023/07/27 06:14:53;;;;;;;6.37;3.50;;;15.10;1.00;;;;;;5095438;28;20532;-44
2023/07/27 06:17:19;;;;;;;3.90;3.20;;;15.10;1.00;;;;;;5113060;28;20298;-44
2023/07/27 06:19:45;;;;;;;3.33;3.07;;;15.10;1.00;;;;;;5111361;28;20176;-46
2023/07/27 06:22:10;;;;;;;4.67;3.70;;;15.20;1.00;;;;;;5109629;28;20184;-45
2023/07/27 06:24:36;;;;;;;3.63;3.33;;;15.30;1.00;;;;;;5110671;28;20215;-47
2023/07/27 06:27:02;;;;;;;4.20;3.40;;;15.40;1.00;;;;;;5111814;28;20168;-46
2023/07/27 06:29:27;;;;;;;3.20;2.90;;;15.40;1.00;;;;;;5091934;28;20179;-46
2023/07/27 06:31:53;;;;;;;3.57;2.93;;;15.40;1.00;;;;;;5093035;28;20195;-44
2023/07/27 06:34:21;;;;;;;3.67;3.37;;;15.40;1.00;;;;;;5109785;28;20190;-46
2023/07/27 06:36:46;;;;;;;4.33;3.10;;;15.50;1.00;;;;;;5111287;28;20207;-47
2023/07/27 06:39:12;;;;;;;3.73;3.23;;;15.50;1.00;;;;;;5115207;28;20416;-45
2023/07/27 06:41:37;;;;;;;4.40;3.57;;;15.60;1.00;;;;;;5099907;28;20235;-44
2023/07/27 06:44:03;;;;;;;4.63;3.50;;;15.60;99.90;;;;;;5117593;28;20179;-44
2023/07/27 06:46:29;;;;;;;4.20;3.80;;;15.60;1.00;;;;;;5115989;28;20172;-44
2023/07/27 06:48:55;;;;;;;3.73;3.20;;;15.70;1.00;;;;;;5115355;28;20266;-44
2023/07/27 06:51:23;;;;;;;3.47;3.17;;;15.80;1.00;;;;;;5115729;28;20401;-46
2023/07/27 06:53:49;;;;;;;3.50;3.20;;;15.90;1.00;;;;;;5115965;28;20459;-45
2023/07/27 06:56:14;;;;;;;3.53;3.23;;;15.90;1.00;;;;;;5117175;28;20425;-45
2023/07/27 06:58:40;;;;;;;4.10;2.97;;;16.00;50.90;;;;;;5115964;28;20539;-46
2023/07/27 07:01:05;;;;;;;3.80;3.30;;;16.00;1.00;;;;;;5095899;28;20183;-46
2023/07/27 07:03:31;;;;;;;3.30;3.00;;;16.10;1.00;;;;;;5113254;28;20508;-45
2023/07/27 07:05:56;;;;;;;4.70;3.70;;;16.10;99.90;;;;;;5115207;28;20171;-47
2023/07/27 07:08:22;;;;;;;3.30;3.00;;;16.10;1.00;;;;;;5114274;28;20434;-47
2023/07/27 07:10:48;;;;;;;4.33;3.70;;;16.00;99.90;;;;;;5115647;28;20258;-45
2023/07/27 07:13:13;;;;;;;4.10;3.70;;;16.00;99.90;;;;;;5116126;28;20527;-44
2023/07/27 07:15:39;;;;;;;3.33;3.03;;;16.00;1.00;;;;;;5116616;28;20278;-47
2023/07/27 07:18:05;;;;;;;3.40;3.07;;;16.10;1.00;;;;;;5116415;28;20726;-48
2023/07/27 07:20:31;;;;;;;3.47;2.97;;;16.10;99.90;;;;;;5115697;28;20431;-46
2023/07/27 07:22:57;;;;;;;3.50;3.20;;;16.10;99.90;;;;;;5116857;28;20417;-45
2023/07/27 07:25:22;;;;;;;4.47;4.07;;;16.20;99.90;;;;;;5114540;28;20426;-48
2023/07/27 07:27:48;;;;;;;3.50;2.90;;;16.20;2.40;;;;;;5114800;28;20585;-45
2023/07/27 07:30:14;;;;;;;4.30;3.37;;;16.20;3.60;;;;;;5114957;28;20237;-44
2023/07/27 07:32:39;;;;;;;3.53;3.20;;;16.20;2.60;;;;;;5115593;28;20168;-45
2023/07/27 07:35:05;;;;;;;3.77;3.37;;;16.20;1.00;;;;;;5116249;28;20199;-45
2023/07/27 07:37:31;;;;;;;3.27;2.90;;;16.20;1.00;;;;;;5117108;28;20211;-45
2023/07/27 07:39:57;;;;;;;3.70;3.20;;;16.20;1.00;;;;;;5116525;28;20428;-46
2023/07/27 07:42:22;;;;;;;4.07;3.37;;;16.20;1.00;;;;;;5097538;28;20522;-46
2023/07/27 07:44:48;;;;;;;6.23;3.40;;;16.10;1.00;;;;;;5079889;28;20179;-47
2023/07/27 07:47:13;;;;;;;4.10;3.70;;;16.10;2.40;;;;;;5115737;28;20523;-48
2023/07/27 07:49:39;;;;;;;3.50;3.13;;;16.10;1.00;;;;;;5114730;28;20266;-47
2023/07/27 07:52:05;;;;;;;4.40;3.30;;;16.20;1.00;;;;;;5113855;28;20188;-50
2023/07/27 07:54:31;;;;;;;4.17;3.30;;;16.20;2.30;;;;;;5115682;28;20179;-44
2023/07/27 07:56:57;;;;;;;4.47;3.30;;;16.20;1.00;;;;;;5112883;28;20203;-44
2023/07/27 07:59:23;;;;;;;4.33;2.83;;;16.20;1.00;;;;;;5114939;28;20462;-46
2023/07/27 08:01:49;;;;;;;3.27;3.00;;;16.20;1.00;;;;;;5112363;28;20680;-45
2023/07/27 08:04:15;;;;;;;5.30;3.60;;;16.20;1.00;;;;;;5113039;28;20413;-45
2023/07/27 08:06:40;;;;;;;4.83;3.30;;;16.30;1.00;;;;;;5096770;28;20167;-44
2023/07/27 08:09:06;;;;;;;3.50;3.20;;;16.30;99.90;;;;;;5113896;28;20520;-43
2023/07/27 08:11:33;;;;;;;5.63;3.37;;;16.40;99.90;;;;;;5111004;28;20477;-45
2023/07/27 08:14:01;;;;;;;4.00;3.27;;;16.50;99.90;;;;;;5111813;28;20418;-44
2023/07/27 08:16:28;;;;;;;3.50;3.00;;;16.50;76.70;;;;;;5113304;28;20425;-45
2023/07/27 08:18:53;;;;;;;4.80;3.23;;;16.60;99.90;;;;;;5114806;28;20413;-45
2023/07/27 08:21:19;;;;;;;3.30;3.00;;;16.70;1.00;;;;;;5114818;28;20699;-44
2023/07/27 08:23:44;;;;;;;3.80;3.00;;;16.60;1.00;;;;;;5114495;28;20454;-44
2023/07/27 08:26:10;;;;;;;5.13;3.40;;;16.60;1.00;;;;;;5112592;28;20579;-44
2023/07/27 08:28:36;;;;;;;3.97;3.17;;;16.70;1.00;;;;;;5113127;28;20593;-44
2023/07/27 08:31:05;;;;;;;3.37;3.07;;;16.70;1.00;;;;;;5128789;27;20206;-44
2023/07/27 08:33:31;;;;;;;5.13;3.73;;;16.70;99.90;;;;;;5117661;27;20602;-45
2023/07/27 08:35:57;;;;;;;4.23;3.83;;;16.60;1.00;;;;;;5135167;27;20481;-44
2023/07/27 08:38:24;;;;;;;3.50;3.20;;;16.60;99.90;;;;;;5134926;27;20948;-45
2023/07/27 08:40:55;;;;;;;5.00;3.20;;;16.70;1.00;;;;;;5133410;27;20971;-43
2023/07/27 08:43:24;;;;;;;4.83;4.20;;;16.70;99.90;;;;;;5134510;27;20425;-46
2023/07/27 08:45:50;;;;;;;4.00;3.23;;;16.60;99.90;;;;;;5134412;27;20492;-44
2023/07/27 08:48:16;;;;;;;3.27;2.97;;;16.70;99.90;;;;;;5133145;27;20432;-47
2023/07/27 08:50:43;;;;;;;3.77;3.00;;;16.80;1.00;;;;;;5133998;27;20421;-47
2023/07/27 08:53:10;;;;;;;4.03;3.03;;;16.80;73.10;;;;;;5132549;27;20438;-45
2023/07/27 08:55:36;;;;;;;3.70;3.30;;;16.90;42.10;;;;;;5132221;27;20527;-45
2023/07/27 08:58:02;;;;;;;4.03;3.43;;;16.90;1.00;;;;;;5114656;27;20559;-48
2023/07/27 09:00:28;;;;;;;4.90;3.63;;;16.90;1.00;;;;;;5133185;27;20171;-44
2023/07/27 09:02:53;;;;;;;3.47;2.90;;;16.90;1.00;;;;;;5130976;27;20428;-45
2023/07/27 09:05:19;;;;;;;3.80;2.77;;;16.90;99.90;;;;;;5134161;27;20745;-44
2023/07/27 09:07:48;;;;;;;3.20;2.90;;;16.90;99.90;;;;;;5133703;27;20183;-45
2023/07/27 09:10:15;;;;;;;3.50;3.20;;;17.00;99.90;;;;;;5134713;27;20178;-45
2023/07/27 09:12:42;;;;;;;3.03;2.73;;;17.10;99.90;;;;;;5134599;27;20647;-47
2023/07/27 09:15:13;;;;;;;3.40;3.10;;;17.20;1.00;;;;;;5130751;27;20717;-45
2023/07/27 09:17:39;;;;;;;3.87;3.50;;;17.20;1.00;;;;;;5129822;27;20468;-44
2023/07/27 09:20:09;;;;;;;5.93;3.43;;;17.20;99.90;;;;;;5132280;27;20421;-44
2023/07/27 09:22:36;;;;;;;3.67;3.30;;;17.20;99.90;;;;;;5132139;27;20419;-45
2023/07/27 09:25:01;;;;;;;3.03;2.73;;;17.10;99.90;;;;;;5132204;27;20552;-45
2023/07/27 09:27:27;;;;;;;3.30;2.90;;;17.10;1.00;;;;;;5132548;27;20460;-45
2023/07/27 09:29:59;;;;;;;3.20;2.80;;;17.10;1.00;;;;;;5114782;27;20185;-44
2023/07/27 09:32:24;;;;;;;3.17;2.87;;;17.00;1.00;;;;;;5132581;27;20688;-45
2023/07/27 09:34:56;;;;;;;3.87;3.10;;;17.10;1.00;;;;;;5132794;27;20495;-47
2023/07/27 09:37:23;;;;;;;6.87;3.50;;;17.10;1.00;;;;;;5132155;27;20602;-45
2023/07/27 09:39:48;;;;;;;5.23;3.40;;;17.20;1.00;;;;;;5115101;27;20419;-45
2023/07/27 09:42:15;;;;;;;3.87;3.57;;;17.20;1.00;;;;;;5133034;27;20476;-44
2023/07/27 09:44:48;;;;;;;3.93;2.83;;;17.20;1.00;;;;;;5131851;27;20186;-44
2023/07/27 09:47:19;;;;;;;3.27;2.97;;;17.20;1.00;;;;;;5132065;27;20497;-46
2023/07/27 09:49:46;;;;;;;3.93;3.20;;;17.20;1.00;;;;;;5130587;27;20515;-46
2023/07/27 09:52:12;;;;;;;4.60;3.20;;;17.20;99.90;;;;;;5113576;28;20436;-44
2023/07/27 09:54:38;;;;;;;4.83;3.03;;;17.20;1.00;;;;;;5132970;28;20910;-44
2023/07/27 09:57:04;;;;;;;5.47;3.90;;;17.20;1.00;;;;;;5111599;28;20234;-45
2023/07/27 09:59:32;;;;;;;5.33;2.80;;;17.20;6.90;;;;;;5112483;28;20183;-45
2023/07/27 10:01:58;;;;;;;3.60;2.80;;;17.30;1.00;;;;;;5131616;28;20432;-46
2023/07/27 10:04:23;;;;;;;3.40;3.10;;;17.30;1.00;;;;;;5114082;28;20417;-46
2023/07/27 10:06:49;;;;;;;3.77;2.70;;;17.30;1.00;;;;;;5132129;28;20543;-44
2023/07/27 10:09:18;;;;;;;3.90;2.93;;;17.30;1.00;;;;;;5132681;28;20232;-46
2023/07/27 10:11:55;;;;;;;3.30;3.00;;;17.40;1.00;;;;;;5131664;28;20432;-44
2023/07/27 10:14:24;;;;;;;4.17;3.10;;;17.40;1.00;;;;;;5133494;27;20643;-45
2023/07/27 10:17:16;;;;;;;4.47;2.90;;;17.40;99.90;;;;;;5136472;27;20495;-47
2023/07/27 10:19:43;;;;;;;3.70;3.00;;;17.40;1.00;;;;;;5131547;27;20437;-45
2023/07/27 10:22:13;;;;;;;4.00;2.53;;;17.50;1.00;;;;;;5133977;27;20830;-44
2023/07/27 10:24:51;;;;;;;3.73;3.17;;;17.60;1.00;;;;;;5133840;27;20801;-46
2023/07/27 10:27:20;;;;;;;4.27;3.17;;;17.70;1.00;;;;;;5132144;27;20526;-45
2023/07/27 10:29:51;;;;;;;3.10;2.90;;;17.90;99.90;;;;;;5133476;27;20761;-45
2023/07/27 10:32:16;;;;;;;4.20;2.83;;;18.00;99.90;;;;;;5135224;27;20432;-44
2023/07/27 10:34:42;;;;;;;3.23;2.93;;;18.10;1.00;;;;;;5115206;27;20647;-44
2023/07/27 10:37:10;;;;;;;3.47;2.93;;;18.20;1.00;;;;;;5133754;27;20200;-45
2023/07/27 10:39:42;;;;;;;3.30;2.90;;;18.40;1.00;;;;;;5135299;27;20412;-44
2023/07/27 10:42:32;;;;;;;4.63;3.37;;;18.50;1.00;;;;;;5135715;27;20473;-44
2023/07/27 10:44:58;;;;;;;4.10;2.97;;;18.60;99.90;;;;;;5132918;27;20838;-45
2023/07/27 10:47:37;;;;;;;3.67;3.37;;;18.80;99.90;;;;;;5132655;27;20604;-45
2023/07/27 10:50:03;;;;;;;3.07;2.70;;;18.90;99.90;;;;;;5134073;27;20468;-45
2023/07/27 10:52:39;;;;;;;4.20;2.83;;;18.90;99.90;;;;;;5114221;27;20489;-45
2023/07/27 10:55:06;;;;;;;5.93;2.90;;;19.00;99.90;;;;;;5130490;27;20420;-46
2023/07/27 10:57:35;;;;;;;3.13;2.83;;;19.10;99.90;;;;;;5130878;27;20858;-46
2023/07/27 11:00:05;;;;;;;4.40;2.73;;;19.20;51.10;;;;;;5133322;27;20413;-46
2023/07/27 11:02:34;;;;;;;4.40;4.00;;;19.30;1.00;;;;;;5132438;27;20408;-45
2023/07/27 11:05:02;;;;;;;5.67;3.10;;;19.50;1.00;;;;;;5132252;27;20420;-47
2023/07/27 11:07:35;;;;;;;3.20;2.77;;;19.70;1.00;;;;;;5134462;27;20443;-46
2023/07/27 11:10:13;;;;;;;5.00;3.70;;;19.90;1.00;;;;;;5131744;27;20756;-45
2023/07/27 11:12:49;;;;;;;3.23;2.50;;;20.10;1.00;;;;;;5134304;27;20409;-46
2023/07/27 11:15:19;;;;;;;3.77;3.00;;;20.10;99.90;;;;;;5133396;27;20898;-48
2023/07/27 11:17:45;;;;;;;4.03;2.70;;;20.00;1.00;;;;;;5131786;27;20501;-45
2023/07/27 11:20:11;;;;;;;3.53;2.83;;;20.00;1.00;;;;;;5134388;27;20409;-46
2023/07/27 11:22:37;;;;;;;4.47;2.93;;;20.10;1.00;;;;;;5117981;27;20516;-46
2023/07/27 11:25:05;;;;;;;3.40;2.77;;;20.10;99.90;;;;;;5134114;27;20529;-47
2023/07/27 11:27:31;;;;;;;6.40;3.40;;;20.10;99.90;;;;;;5118428;27;20182;-47
2023/07/27 11:30:00;;;;;;;2.80;2.60;;;20.10;99.90;;;;;;5135987;27;20710;-47
2023/07/27 11:32:26;;;;;;;4.63;3.00;;;20.10;99.90;;;;;;5136107;27;20179;-47
2023/07/27 11:34:56;;;;;;;3.97;2.57;;;20.10;99.90;;;;;;5136405;27;20717;-47
2023/07/27 11:37:29;;;;;;;3.30;2.43;;;20.10;1.00;;;;;;5136097;27;20460;-48
2023/07/27 11:39:55;;;;;;;5.70;2.70;;;20.10;1.00;;;;;;5132014;27;20448;-45
2023/07/27 11:42:28;;;;;;;3.20;2.70;;;20.10;1.00;;;;;;5136668;27;20472;-47
2023/07/27 11:44:54;;;;;;;3.17;2.37;;;20.00;1.00;;;;;;5136042;27;20451;-48
2023/07/27 11:47:19;;;;;;;2.63;2.43;;;19.90;1.00;;;;;;5136334;27;20523;-48
2023/07/27 11:49:46;;;;;;;3.70;2.43;;;19.90;1.00;;;;;;5131893;27;20544;-46
2023/07/27 11:52:11;;;;;;;3.10;2.70;;;19.80;1.00;;;;;;5116581;27;20183;-46
2023/07/27 11:54:39;;;;;;;2.83;2.53;;;19.80;1.00;;;;;;5137245;27;20435;-47
2023/07/27 11:57:05;;;;;;;5.93;3.33;;;19.70;56.60;;;;;;5133848;27;20433;-45
2023/07/27 11:59:31;;;;;;;2.60;2.40;;;19.70;99.90;;;;;;5133102;27;20435;-50
2023/07/27 12:01:57;;;;;;;3.50;2.80;;;19.80;99.90;;;;;;5132147;27;20756;-45
2023/07/27 12:04:23;;;;;;;2.97;2.37;;;19.80;99.90;;;;;;5116425;27;20431;-45
2023/07/27 12:06:49;;;;;;;2.60;2.20;;;19.80;99.90;;;;;;5114471;27;20179;-48
2023/07/27 12:09:15;;;;;;;2.40;2.20;;;19.80;1.00;;;;;;5134323;27;20556;-45
2023/07/27 12:11:40;;;;;;;2.60;2.40;;;19.80;99.90;;;;;;5114406;27;20421;-47
2023/07/27 12:14:08;;;;;;;4.93;2.47;;;19.80;99.90;;;;;;5131639;27;20190;-45
2023/07/27 12:16:41;;;;;;;4.17;2.90;;;19.60;1.00;;;;;;5113198;28;20187;-45
2023/07/27 12:19:07;;;;;;;3.10;2.80;;;19.50;1.00;;;;;;5113627;28;20410;-46
2023/07/27 12:21:37;;;;;;;4.30;2.23;;;19.50;99.90;;;;;;5112907;28;20720;-46
2023/07/27 12:24:10;;;;;;;3.80;2.13;;;19.40;1.00;;;;;;5093342;28;20428;-45
2023/07/27 12:26:39;;;;;;;3.90;2.73;;;19.40;1.00;;;;;;5110308;28;21210;-48
2023/07/27 12:29:04;;;;;;;3.03;2.73;;;19.30;99.90;;;;;;5113452;28;20422;-46
2023/07/27 12:31:31;;;;;;;3.03;2.13;;;19.20;37.80;;;;;;5112046;28;20850;-45
2023/07/27 12:33:56;;;;;;;4.00;2.90;;;19.10;1.00;;;;;;5111998;28;20296;-45
2023/07/27 12:36:22;;;;;;;2.90;2.53;;;19.00;1.00;;;;;;5112059;28;20465;-48
2023/07/27 12:38:48;;;;;;;3.30;2.97;;;19.00;99.90;;;;;;5111062;28;20469;-45
2023/07/27 12:41:13;;;;;;;3.83;2.90;;;19.10;99.90;;;;;;5111261;28;20443;-46
2023/07/27 12:43:39;;;;;;;6.47;3.13;;;19.10;99.90;;;;;;5111592;28;20175;-47
2023/07/27 12:46:05;;;;;;;2.97;2.67;;;19.20;99.90;;;;;;5112310;28;20168;-47
2023/07/27 12:48:31;;;;;;;2.77;2.47;;;19.30;99.90;;;;;;5114126;28;20513;-46
2023/07/27 12:50:57;;;;;;;2.93;2.60;;;19.40;99.90;;;;;;5112313;28;20796;-46
2023/07/27 12:53:22;;;;;;;2.67;2.47;;;19.50;1.00;;;;;;5111967;28;20214;-45